Terminal Aerodrome Forecast
Issued by NWS

Home | Current Version | Previous Version | Text Only | Print | Product List | Glossary On
Versions: 1 2 3 4 5 6 7 8 9 10 11 12 13 14 15 16 17 18 19 20 21
000
FTUS43 KAPX 081126
TAFPLN
TAF
KPLN 081126Z 0812/0912 00000KT 1/2SM FZFG SCT040
      TEMPO 0812/0813 1/4SM FZFG VV002
     FM081400 VRB02KT P6SM BKN035
      TEMPO 0814/0815 5SM BR
     FM082200 33005KT 5SM BR BKN018
     FM090200 33009KT 3SM -SHSN BR OVC008
     FM090600 35009KT P6SM -SHSN OVC014=

USA.gov is the U.S. government's official web portal to all federal, state and local government web resources and services.